Time;durP1;ratioP1;P1;durP2;ratioP2;P2;SDS_P1;SDS_P2;PMS_P1;PMS_P2;Temp;Humidity;BMP_temperature;BMP_pressure;BME280_temperature;BME280_humidity;BME280_pressure;Samples;Min_cycle;Max_cycle;Signal;HPM_P1;HPM_P2
2021/11/23 00:00:00;;;;;;;;;;;;;;;;;;173239;28;840;-50
2021/11/23 00:00:09;;;;;;;;;;;;;;;;;;173698;28;1192;-48
2021/11/23 00:00:15;;;;;;;;;;;;;;;;;;174094;28;1079;-48
2021/11/23 00:00:20;;;;;;;;;;;;;;;;;;173457;28;489;-49
2021/11/23 00:00:25;;;;;;;;;;;;;;;;;;173487;28;892;-48
2021/11/23 00:00:31;;;;;;;;;;;;;;;;;;173477;28;1406;-49
2021/11/23 00:00:37;;;;;;;;;;;;;;;;;;173175;28;778;-51
2021/11/23 00:00:46;;;;;;;;;;;;;;;;;;173950;28;1232;-56
2021/11/23 00:00:52;;;;;;;;;;;;;;;;;;173946;28;1200;-54
2021/11/23 00:00:57;;;;;;;;;;;;;;;;;;173856;28;837;-51
2021/11/23 00:01:02;;;;;;;;;;;;;;;;;;173880;28;1196;-50
2021/11/23 00:01:07;;;;;;;;;;;;;;;;;;173366;28;805;-51
2021/11/23 00:01:13;;;;;;;;;;;;;;;;;;173442;28;881;-48
2021/11/23 00:01:19;;;;;;;;;;;;;;;;;;173870;28;1168;-50
2021/11/23 00:01:25;;;;;;;;;;;;;;;;;;174125;28;833;-51
2021/11/23 00:01:30;;;;;;;;;;;;;;;;;;173321;28;1310;-50
2021/11/23 00:01:35;;;;;;;;;;;;;;;;;;173328;28;797;-52
2021/11/23 00:01:40;;;;;;;;;;;;;;;;;;173775;28;1177;-51
2021/11/23 00:01:46;;;;;;;;;;;;;;;;;;174091;28;771;-50
2021/11/23 00:01:51;;;;;;;;;;;;;;;;;;173637;28;1184;-48
2021/11/23 00:01:56;;;;;;;;;;;;;;;;;;173113;28;1011;-51
2021/11/23 00:02:01;;;;;;;;;;;;;;;;;;173264;28;1141;-51
2021/11/23 00:02:06;;;;;;;;;;;;;;;;;;174057;28;822;-50
2021/11/23 00:02:12;;;;;;;;;;;;;;;;;;174061;28;806;-49
2021/11/23 00:02:17;;;;;;;;;;;;;;;;;;173300;28;1235;-49
2021/11/23 00:02:24;;;;;;;;;;;;;;;;;;173335;28;1067;-52
2021/11/23 00:02:29;;;;;;;;;;;;;;;;;;173321;28;889;-49
2021/11/23 00:02:35;;;;;;;;;;;;;;;;;;173337;28;912;-49
2021/11/23 00:02:40;;;;;;;;;;;;;;;;;;173903;28;1157;-49
2021/11/23 00:02:45;;;;;;;;;;;;;;;;;;173566;28;1674;-51
2021/11/23 00:02:51;;;;;;;;;;;;;;;;;;172749;28;1827;-52
2021/11/23 00:02:56;;;;;;;;;;;;;;;;;;172344;28;1408;-50
2021/11/23 00:03:01;;;;;;;;;;;;;;;;;;173739;28;892;-53
2021/11/23 00:03:06;;;;;;;;;;;;;;;;;;173907;28;889;-51
2021/11/23 00:03:12;;;;;;;;;;;;;;;;;;172550;28;1707;-50
2021/11/23 00:03:17;;;;;;;;;;;;;;;;;;173821;28;961;-50
2021/11/23 00:03:23;;;;;;;;;;;;;;;;;;174062;28;849;-49
2021/11/23 00:03:28;;;;;;;;;;;;;;;;;;173317;28;1267;-49
2021/11/23 00:03:33;;;;;;;;;;;;;;;;;;173391;28;818;-47
2021/11/23 00:03:38;;;;;;;;;;;;;;;;;;173648;28;1126;-49
2021/11/23 00:03:43;;;;;;;;;;;;;;;;;;173913;28;1053;-49
2021/11/23 00:03:49;;;;;;;;;;;;;;;;;;174013;28;1185;-49
2021/11/23 00:03:54;;;;;;;;;;;;;;;;;;173949;28;794;-51
2021/11/23 00:03:59;;;;;;;;;;;;;;;;;;173672;28;1075;-53
2021/11/23 00:04:04;;;;;;;;;;;;;;;;;;174076;28;833;-50
2021/11/23 00:04:09;;;;;;;;;;;;;;;;;;174117;28;821;-51
2021/11/23 00:04:15;;;;;;;;;;;;;;;;;;173400;28;1286;-51
2021/11/23 00:04:20;;;;;;;;;;;;;;;;;;173112;28;952;-51
2021/11/23 00:04:25;;;;;;;;;;;;;;;;;;173794;28;1227;-48
2021/11/23 00:04:30;;;;;;;;;;;;;;;;;;174010;28;956;-51
2021/11/23 00:04:35;;;;;;;;;;;;;;;;;;173714;28;1164;-52
2021/11/23 00:04:40;;;;;;;;;;;;;;;;;;173367;28;861;-50
2021/11/23 00:04:45;;;;;;;;;;;;;;;;;;173599;28;1116;-50
2021/11/23 00:04:51;;;;;;;;;;;;;;;;;;173267;28;826;-49
2021/11/23 00:04:56;;;;;;;;;;;;;;;;;;173113;28;892;-50
2021/11/23 00:05:01;;;;;;;;;;;;;;;;;;173185;28;1354;-48
2021/11/23 00:05:07;;;;;;;;;;;;;;;;;;173104;28;809;-50
2021/11/23 00:05:12;;;;;;;;;;;;;;;;;;173708;28;1224;-53
2021/11/23 00:05:17;;;;;;;;;;;;;;;;;;173872;28;976;-49
2021/11/23 00:05:22;;;;;;;;;;;;;;;;;;173761;28;1136;-50
2021/11/23 00:05:28;;;;;;;;;;;;;;;;;;173410;28;862;-51
2021/11/23 00:05:33;;;;;;;;;;;;;;;;;;173347;28;1176;-53
2021/11/23 00:05:38;;;;;;;;;;;;;;;;;;173876;28;869;-50
2021/11/23 00:05:47;;;;;;;;;;;;;;;;;;173709;28;989;-49
2021/11/23 00:05:52;;;;;;;;;;;;;;;;;;173259;28;936;-52
2021/11/23 00:05:57;;;;;;;;;;;;;;;;;;173207;28;1109;-50
2021/11/23 00:06:03;;;;;;;;;;;;;;;;;;174081;28;944;-49
2021/11/23 00:06:08;;;;;;;;;;;;;;;;;;174000;28;873;-50
2021/11/23 00:06:13;;;;;;;;;;;;;;;;;;173280;28;1113;-50
2021/11/23 00:06:18;;;;;;;;;;;;;;;;;;171690;28;1511;-49
2021/11/23 00:06:24;;;;;;;;;;;;;;;;;;172063;28;1379;-49
2021/11/23 00:06:32;;;;;;;;;;;;;;;;;;172757;28;939;-49
2021/11/23 00:06:38;;;;;;;;;;;;;;;;;;172608;28;854;-48
2021/11/23 00:06:43;;;;;;;;;;;;;;;;;;172536;28;1070;-50
2021/11/23 00:06:48;;;;;;;;;;;;;;;;;;173358;28;1232;-52
2021/11/23 00:06:53;;;;;;;;;;;;;;;;;;171689;28;2012;-51
2021/11/23 00:06:58;;;;;;;;;;;;;;;;;;172905;28;1195;-50
2021/11/23 00:07:04;;;;;;;;;;;;;;;;;;173417;28;782;-49
2021/11/23 00:07:09;;;;;;;;;;;;;;;;;;170853;28;2074;-53
2021/11/23 00:07:14;;;;;;;;;;;;;;;;;;172363;28;798;-50
2021/11/23 00:07:19;;;;;;;;;;;;;;;;;;172583;28;1225;-47
2021/11/23 00:07:24;;;;;;;;;;;;;;;;;;172592;28;1082;-49
2021/11/23 00:07:29;;;;;;;;;;;;;;;;;;172724;28;853;-48
2021/11/23 00:07:35;;;;;;;;;;;;;;;;;;172648;28;1201;-50
2021/11/23 00:07:40;;;;;;;;;;;;;;;;;;172573;28;799;-50
2021/11/23 00:07:45;;;;;;;;;;;;;;;;;;170193;28;1913;-48
2021/11/23 00:07:50;;;;;;;;;;;;;;;;;;172054;28;952;-48
2021/11/23 00:07:56;;;;;;;;;;;;;;;;;;171921;28;1166;-49
2021/11/23 00:08:02;;;;;;;;;;;;;;;;;;172693;28;715;-49
2021/11/23 00:08:09;;;;;;;;;;;;;;;;;;172612;28;1118;-49
2021/11/23 00:08:14;;;;;;;;;;;;;;;;;;172698;28;810;-50
2021/11/23 00:08:20;;;;;;;;;;;;;;;;;;172262;28;1725;-50
2021/11/23 00:08:25;;;;;;;;;;;;;;;;;;174116;28;809;-51
2021/11/23 00:08:30;;;;;;;;;;;;;;;;;;173986;28;1113;-49
2021/11/23 00:08:36;;;;;;;;;;;;;;;;;;173951;28;933;-49
2021/11/23 00:08:41;;;;;;;;;;;;;;;;;;173949;28;718;-50
2021/11/23 00:08:46;;;;;;;;;;;;;;;;;;173236;28;1252;-52
2021/11/23 00:08:51;;;;;;;;;;;;;;;;;;172557;28;1795;-49
2021/11/23 00:08:56;;;;;;;;;;;;;;;;;;173506;28;998;-51
2021/11/23 00:09:02;;;;;;;;;;;;;;;;;;174016;28;1008;-52
2021/11/23 00:09:07;;;;;;;;;;;;;;;;;;173967;28;1175;-50
2021/11/23 00:09:12;;;;;;;;;;;;;;;;;;174073;28;872;-51
2021/11/23 00:09:17;;;;;;;;;;;;;;;;;;173904;28;1207;-52
2021/11/23 00:09:22;;;;;;;;;;;;;;;;;;173065;28;1583;-50
2021/11/23 00:09:27;;;;;;;;;;;;;;;;;;173993;28;1890;-50
2021/11/23 00:09:33;;;;;;;;;;;;;;;;;;174002;28;1128;-47
2021/11/23 00:09:38;;;;;;;;;;;;;;;;;;174254;28;889;-50
2021/11/23 00:09:43;;;;;;;;;;;;;;;;;;174549;28;1266;-49
2021/11/23 00:09:48;;;;;;;;;;;;;;;;;;173680;28;805;-51
2021/11/23 00:09:53;;;;;;;;;;;;;;;;;;173321;28;1089;-51
2021/11/23 00:09:58;;;;;;;;;;;;;;;;;;172841;28;1511;-51
2021/11/23 00:10:04;;;;;;;;;;;;;;;;;;173457;28;864;-48
2021/11/23 00:10:09;;;;;;;;;;;;;;;;;;174019;28;900;-48
2021/11/23 00:10:14;;;;;;;;;;;;;;;;;;174032;28;786;-53
2021/11/23 00:10:19;;;;;;;;;;;;;;;;;;174432;28;1140;-49
2021/11/23 00:10:24;;;;;;;;;;;;;;;;;;174777;28;544;-48
2021/11/23 00:10:30;;;;;;;;;;;;;;;;;;173920;28;1528;-51
2021/11/23 00:10:35;;;;;;;;;;;;;;;;;;174054;28;899;-54
2021/11/23 00:10:41;;;;;;;;;;;;;;;;;;174201;28;1181;-50
2021/11/23 00:10:46;;;;;;;;;;;;;;;;;;174684;28;1063;-48
2021/11/23 00:10:51;;;;;;;;;;;;;;;;;;174627;28;1218;-49
2021/11/23 00:10:56;;;;;;;;;;;;;;;;;;174380;28;1097;-51
2021/11/23 00:11:02;;;;;;;;;;;;;;;;;;174674;28;837;-49
2021/11/23 00:11:07;;;;;;;;;;;;;;;;;;174048;28;1259;-49
2021/11/23 00:11:12;;;;;;;;;;;;;;;;;;174092;28;951;-51
2021/11/23 00:11:17;;;;;;;;;;;;;;;;;;174329;28;1263;-48
2021/11/23 00:11:22;;;;;;;;;;;;;;;;;;174729;28;921;-51
2021/11/23 00:11:27;;;;;;;;;;;;;;;;;;174573;28;1180;-51
2021/11/23 00:11:33;;;;;;;;;;;;;;;;;;174049;28;897;-47
2021/11/23 00:11:38;;;;;;;;;;;;;;;;;;173967;28;900;-47
2021/11/23 00:11:43;;;;;;;;;;;;;;;;;;174576;28;1113;-50
2021/11/23 00:11:48;;;;;;;;;;;;;;;;;;174605;28;881;-51
2021/11/23 00:11:53;;;;;;;;;;;;;;;;;;174549;28;1167;-49
2021/11/23 00:11:58;;;;;;;;;;;;;;;;;;174439;28;821;-50
2021/11/23 00:12:04;;;;;;;;;;;;;;;;;;174390;28;1167;-49
2021/11/23 00:12:09;;;;;;;;;;;;;;;;;;173872;28;1023;-50
2021/11/23 00:12:15;;;;;;;;;;;;;;;;;;174020;28;1172;-50
2021/11/23 00:12:20;;;;;;;;;;;;;;;;;;174640;28;758;-49
2021/11/23 00:12:25;;;;;;;;;;;;;;;;;;174693;28;786;-49
2021/11/23 00:12:30;;;;;;;;;;;;;;;;;;174035;28;1066;-54
2021/11/23 00:12:35;;;;;;;;;;;;;;;;;;173412;28;738;-51
2021/11/23 00:12:42;;;;;;;;;;;;;;;;;;173803;28;1212;-49
2021/11/23 00:12:47;;;;;;;;;;;;;;;;;;173316;28;929;-50
2021/11/23 00:12:53;;;;;;;;;;;;;;;;;;173670;28;1217;-51
2021/11/23 00:12:58;;;;;;;;;;;;;;;;;;173955;28;798;-47
2021/11/23 00:13:03;;;;;;;;;;;;;;;;;;173612;28;1140;-52
2021/11/23 00:13:08;;;;;;;;;;;;;;;;;;173320;28;1020;-51
2021/11/23 00:13:17;;;;;;;;;;;;;;;;;;172960;28;1573;-49
2021/11/23 00:13:22;;;;;;;;;;;;;;;;;;171770;28;1578;-54
2021/11/23 00:13:27;;;;;;;;;;;;;;;;;;172210;28;1133;-49
2021/11/23 00:13:32;;;;;;;;;;;;;;;;;;171152;28;1516;-51
2021/11/23 00:13:37;;;;;;;;;;;;;;;;;;172816;28;1033;-49
2021/11/23 00:13:43;;;;;;;;;;;;;;;;;;172481;28;841;-51
2021/11/23 00:13:48;;;;;;;;;;;;;;;;;;172502;28;1118;-50
2021/11/23 00:13:53;;;;;;;;;;;;;;;;;;173363;28;869;-49
2021/11/23 00:13:58;;;;;;;;;;;;;;;;;;173124;28;1015;-49
2021/11/23 00:14:04;;;;;;;;;;;;;;;;;;173301;28;1145;-51
2021/11/23 00:14:09;;;;;;;;;;;;;;;;;;173254;28;861;-53
2021/11/23 00:14:14;;;;;;;;;;;;;;;;;;172572;28;1173;-50
2021/11/23 00:14:19;;;;;;;;;;;;;;;;;;171817;28;838;-49
2021/11/23 00:14:24;;;;;;;;;;;;;;;;;;171828;28;1216;-52
2021/11/23 00:14:30;;;;;;;;;;;;;;;;;;171749;28;790;-52
2021/11/23 00:14:35;;;;;;;;;;;;;;;;;;171895;28;901;-52
2021/11/23 00:14:40;;;;;;;;;;;;;;;;;;171266;28;830;-48
2021/11/23 00:14:45;;;;;;;;;;;;;;;;;;171172;28;1004;-52
2021/11/23 00:14:50;;;;;;;;;;;;;;;;;;171681;28;1233;-52
2021/11/23 00:14:56;;;;;;;;;;;;;;;;;;171878;28;877;-51
2021/11/23 00:15:01;;;;;;;;;;;;;;;;;;171832;28;1193;-50
2021/11/23 00:15:06;;;;;;;;;;;;;;;;;;171770;28;881;-51
2021/11/23 00:15:11;;;;;;;;;;;;;;;;;;171808;28;1146;-49
2021/11/23 00:15:17;;;;;;;;;;;;;;;;;;171822;28;1127;-51
2021/11/23 00:15:22;;;;;;;;;;;;;;;;;;172462;28;924;-50
2021/11/23 00:15:27;;;;;;;;;;;;;;;;;;172508;28;1216;-48
2021/11/23 00:15:35;;;;;;;;;;;;;;;;;;172422;28;1606;-49
2021/11/23 00:15:40;;;;;;;;;;;;;;;;;;172498;28;1688;-50
2021/11/23 00:15:45;;;;;;;;;;;;;;;;;;173165;28;867;-49
2021/11/23 00:15:51;;;;;;;;;;;;;;;;;;172633;28;1021;-49
2021/11/23 00:15:56;;;;;;;;;;;;;;;;;;171915;28;874;-50
2021/11/23 00:16:01;;;;;;;;;;;;;;;;;;172486;28;1795;-49
2021/11/23 00:16:06;;;;;;;;;;;;;;;;;;172661;28;1004;-48
2021/11/23 00:16:11;;;;;;;;;;;;;;;;;;172496;28;1156;-52
2021/11/23 00:16:17;;;;;;;;;;;;;;;;;;172804;28;795;-50
2021/11/23 00:16:22;;;;;;;;;;;;;;;;;;173500;28;1169;-49
2021/11/23 00:16:27;;;;;;;;;;;;;;;;;;173946;28;839;-47
2021/11/23 00:16:32;;;;;;;;;;;;;;;;;;173994;28;734;-52
2021/11/23 00:16:38;;;;;;;;;;;;;;;;;;173175;28;1354;-50
2021/11/23 00:16:43;;;;;;;;;;;;;;;;;;173346;28;1044;-51
2021/11/23 00:16:48;;;;;;;;;;;;;;;;;;174003;28;1181;-49
2021/11/23 00:16:54;;;;;;;;;;;;;;;;;;174024;28;866;-48
2021/11/23 00:16:59;;;;;;;;;;;;;;;;;;173551;28;1176;-48
2021/11/23 00:17:04;;;;;;;;;;;;;;;;;;173281;28;972;-48
2021/11/23 00:17:09;;;;;;;;;;;;;;;;;;173412;28;1093;-48
2021/11/23 00:17:15;;;;;;;;;;;;;;;;;;174116;28;964;-47
2021/11/23 00:17:20;;;;;;;;;;;;;;;;;;174040;28;818;-48
2021/11/23 00:17:25;;;;;;;;;;;;;;;;;;173894;28;1342;-51
2021/11/23 00:17:30;;;;;;;;;;;;;;;;;;174045;28;777;-48
2021/11/23 00:17:35;;;;;;;;;;;;;;;;;;173825;28;1247;-52
2021/11/23 00:17:41;;;;;;;;;;;;;;;;;;174027;28;936;-48
2021/11/23 00:17:46;;;;;;;;;;;;;;;;;;173767;28;1072;-48
2021/11/23 00:17:51;;;;;;;;;;;;;;;;;;173989;28;893;-50
2021/11/23 00:17:56;;;;;;;;;;;;;;;;;;174223;28;1127;-48
2021/11/23 00:18:02;;;;;;;;;;;;;;;;;;174142;28;797;-48
2021/11/23 00:18:08;;;;;;;;;;;;;;;;;;174118;28;1203;-49
2021/11/23 00:18:14;;;;;;;;;;;;;;;;;;174785;28;809;-48
2021/11/23 00:18:19;;;;;;;;;;;;;;;;;;174498;28;1383;-51
2021/11/23 00:18:24;;;;;;;;;;;;;;;;;;174074;28;931;-49
2021/11/23 00:18:29;;;;;;;;;;;;;;;;;;173885;28;988;-51
2021/11/23 00:18:34;;;;;;;;;;;;;;;;;;174521;28;1226;-49
2021/11/23 00:18:40;;;;;;;;;;;;;;;;;;174642;28;896;-47
2021/11/23 00:18:45;;;;;;;;;;;;;;;;;;174295;28;1579;-49
2021/11/23 00:18:51;;;;;;;;;;;;;;;;;;173901;28;846;-51
2021/11/23 00:18:56;;;;;;;;;;;;;;;;;;174099;28;1156;-51
2021/11/23 00:19:01;;;;;;;;;;;;;;;;;;174699;28;897;-50
2021/11/23 00:19:06;;;;;;;;;;;;;;;;;;174630;28;1163;-49
2021/11/23 00:19:11;;;;;;;;;;;;;;;;;;174084;28;937;-51
2021/11/23 00:19:16;;;;;;;;;;;;;;;;;;173997;28;818;-50
2021/11/23 00:19:22;;;;;;;;;;;;;;;;;;174558;28;1266;-49
2021/11/23 00:19:27;;;;;;;;;;;;;;;;;;173996;28;1063;-50
2021/11/23 00:19:32;;;;;;;;;;;;;;;;;;173989;28;1140;-49
2021/11/23 00:19:37;;;;;;;;;;;;;;;;;;174025;28;715;-49
2021/11/23 00:19:42;;;;;;;;;;;;;;;;;;173864;28;1176;-48
2021/11/23 00:19:47;;;;;;;;;;;;;;;;;;173295;28;731;-49
2021/11/23 00:19:53;;;;;;;;;;;;;;;;;;173348;28;893;-52
2021/11/23 00:19:58;;;;;;;;;;;;;;;;;;173908;28;1204;-47
2021/11/23 00:20:03;;;;;;;;;;;;;;;;;;174005;28;893;-49
2021/11/23 00:20:09;;;;;;;;;;;;;;;;;;173342;28;1125;-50
2021/11/23 00:20:14;;;;;;;;;;;;;;;;;;173429;28;738;-49
2021/11/23 00:20:19;;;;;;;;;;;;;;;;;;173561;28;1113;-51
2021/11/23 00:20:25;;;;;;;;;;;;;;;;;;173960;28;834;-54
2021/11/23 00:20:30;;;;;;;;;;;;;;;;;;173598;28;1152;-49
2021/11/23 00:20:37;;;;;;;;;;;;;;;;;;173131;28;901;-51
2021/11/23 00:20:42;;;;;;;;;;;;;;;;;;172949;28;1152;-47
2021/11/23 00:20:48;;;;;;;;;;;;;;;;;;173978;28;876;-48
2021/11/23 00:20:53;;;;;;;;;;;;;;;;;;173719;28;1187;-52
2021/11/23 00:20:58;;;;;;;;;;;;;;;;;;173218;28;952;-49
2021/11/23 00:21:03;;;;;;;;;;;;;;;;;;173311;28;814;-48
2021/11/23 00:21:09;;;;;;;;;;;;;;;;;;173969;28;1302;-50
2021/11/23 00:21:14;;;;;;;;;;;;;;;;;;174047;28;810;-51
2021/11/23 00:21:19;;;;;;;;;;;;;;;;;;173379;28;1156;-49
2021/11/23 00:21:24;;;;;;;;;;;;;;;;;;173306;28;889;-49
2021/11/23 00:21:29;;;;;;;;;;;;;;;;;;173485;28;1199;-50
2021/11/23 00:21:35;;;;;;;;;;;;;;;;;;174008;28;933;-50
2021/11/23 00:21:40;;;;;;;;;;;;;;;;;;173832;28;1206;-48
2021/11/23 00:21:45;;;;;;;;;;;;;;;;;;173348;28;916;-49
2021/11/23 00:21:50;;;;;;;;;;;;;;;;;;173373;28;507;-49
2021/11/23 00:21:56;;;;;;;;;;;;;;;;;;173837;28;1184;-48
2021/11/23 00:22:01;;;;;;;;;;;;;;;;;;174042;28;861;-50
2021/11/23 00:22:06;;;;;;;;;;;;;;;;;;173482;28;1148;-48
2021/11/23 00:22:11;;;;;;;;;;;;;;;;;;173443;28;889;-49
2021/11/23 00:22:16;;;;;;;;;;;;;;;;;;173478;28;1165;-47
2021/11/23 00:22:22;;;;;;;;;;;;;;;;;;174049;28;904;-49
2021/11/23 00:22:27;;;;;;;;;;;;;;;;;;173768;28;1160;-53
2021/11/23 00:22:32;;;;;;;;;;;;;;;;;;173890;28;848;-50
2021/11/23 00:22:37;;;;;;;;;;;;;;;;;;173924;28;865;-49
2021/11/23 00:22:42;;;;;;;;;;;;;;;;;;173499;28;1287;-49
2021/11/23 00:22:48;;;;;;;;;;;;;;;;;;173452;28;886;-48
2021/11/23 00:22:54;;;;;;;;;;;;;;;;;;173713;28;1101;-50
2021/11/23 00:22:59;;;;;;;;;;;;;;;;;;173984;28;912;-47
2021/11/23 00:23:05;;;;;;;;;;;;;;;;;;173606;28;1282;-48
2021/11/23 00:23:11;;;;;;;;;;;;;;;;;;173346;28;814;-49
2021/11/23 00:23:16;;;;;;;;;;;;;;;;;;173517;28;1243;-48
2021/11/23 00:23:21;;;;;;;;;;;;;;;;;;174061;28;810;-51
2021/11/23 00:23:26;;;;;;;;;;;;;;;;;;173774;28;1017;-49
2021/11/23 00:23:31;;;;;;;;;;;;;;;;;;173170;28;853;-50
2021/11/23 00:23:37;;;;;;;;;;;;;;;;;;172690;28;1711;-51
2021/11/23 00:23:42;;;;;;;;;;;;;;;;;;173117;28;1397;-50
2021/11/23 00:23:47;;;;;;;;;;;;;;;;;;173821;28;869;-52
2021/11/23 00:23:52;;;;;;;;;;;;;;;;;;173811;28;1291;-48
2021/11/23 00:23:57;;;;;;;;;;;;;;;;;;173909;28;979;-48
2021/11/23 00:24:03;;;;;;;;;;;;;;;;;;173312;28;1485;-51
2021/11/23 00:24:08;;;;;;;;;;;;;;;;;;173672;28;770;-48
2021/11/23 00:24:13;;;;;;;;;;;;;;;;;;173415;28;1200;-48
2021/11/23 00:24:19;;;;;;;;;;;;;;;;;;174000;28;1209;-46
2021/11/23 00:24:24;;;;;;;;;;;;;;;;;;174008;28;956;-49
2021/11/23 00:24:29;;;;;;;;;;;;;;;;;;173259;28;1020;-50
2021/11/23 00:24:34;;;;;;;;;;;;;;;;;;172682;28;1740;-49
2021/11/23 00:24:39;;;;;;;;;;;;;;;;;;173817;28;1120;-50
2021/11/23 00:24:45;;;;;;;;;;;;;;;;;;173842;28;1056;-50
2021/11/23 00:24:50;;;;;;;;;;;;;;;;;;173871;28;1203;-51
2021/11/23 00:24:55;;;;;;;;;;;;;;;;;;174023;28;868;-54
2021/11/23 00:25:01;;;;;;;;;;;;;;;;;;173921;28;1151;-48
2021/11/23 00:25:06;;;;;;;;;;;;;;;;;;173771;28;896;-49
2021/11/23 00:25:12;;;;;;;;;;;;;;;;;;173841;28;1018;-52
2021/11/23 00:25:17;;;;;;;;;;;;;;;;;;173274;28;888;-48
2021/11/23 00:25:22;;;;;;;;;;;;;;;;;;173399;28;806;-50
2021/11/23 00:25:27;;;;;;;;;;;;;;;;;;173771;28;1018;-50
2021/11/23 00:25:33;;;;;;;;;;;;;;;;;;173968;28;912;-49
2021/11/23 00:25:38;;;;;;;;;;;;;;;;;;173457;28;1167;-49
2021/11/23 00:25:43;;;;;;;;;;;;;;;;;;173359;28;1057;-48
2021/11/23 00:25:48;;;;;;;;;;;;;;;;;;174034;28;1169;-49
2021/11/23 00:25:53;;;;;;;;;;;;;;;;;;174128;28;1019;-49
2021/11/23 00:25:59;;;;;;;;;;;;;;;;;;173958;28;1076;-49
2021/11/23 00:26:05;;;;;;;;;;;;;;;;;;173542;28;921;-48
2021/11/23 00:26:10;;;;;;;;;;;;;;;;;;173473;28;806;-48
2021/11/23 00:26:15;;;;;;;;;;;;;;;;;;173417;28;825;-52
2021/11/23 00:26:22;;;;;;;;;;;;;;;;;;173535;28;925;-48
2021/11/23 00:26:27;;;;;;;;;;;;;;;;;;174055;28;927;-49
2021/11/23 00:26:33;;;;;;;;;;;;;;;;;;174064;28;822;-49
2021/11/23 00:26:38;;;;;;;;;;;;;;;;;;173990;28;1240;-49
2021/11/23 00:26:43;;;;;;;;;;;;;;;;;;174121;28;1202;-49
2021/11/23 00:26:48;;;;;;;;;;;;;;;;;;174175;28;1244;-47
2021/11/23 00:26:53;;;;;;;;;;;;;;;;;;174126;28;833;-52
2021/11/23 00:26:58;;;;;;;;;;;;;;;;;;173690;28;1140;-51
2021/11/23 00:27:04;;;;;;;;;;;;;;;;;;173537;28;825;-48
2021/11/23 00:27:09;;;;;;;;;;;;;;;;;;173473;28;1078;-51
2021/11/23 00:27:14;;;;;;;;;;;;;;;;;;174257;28;833;-47
2021/11/23 00:27:20;;;;;;;;;;;;;;;;;;174162;28;798;-49
2021/11/23 00:27:25;;;;;;;;;;;;;;;;;;173586;28;1472;-50
2021/11/23 00:27:30;;;;;;;;;;;;;;;;;;173325;28;833;-47
2021/11/23 00:27:35;;;;;;;;;;;;;;;;;;173662;28;1156;-52
2021/11/23 00:27:40;;;;;;;;;;;;;;;;;;174147;28;753;-50
2021/11/23 00:27:46;;;;;;;;;;;;;;;;;;174031;28;1176;-49
2021/11/23 00:27:51;;;;;;;;;;;;;;;;;;173431;28;814;-49
2021/11/23 00:27:56;;;;;;;;;;;;;;;;;;173339;28;961;-50
2021/11/23 00:28:01;;;;;;;;;;;;;;;;;;173540;28;1039;-49
2021/11/23 00:28:06;;;;;;;;;;;;;;;;;;173521;28;908;-50
2021/11/23 00:28:12;;;;;;;;;;;;;;;;;;173997;28;1185;-50
2021/11/23 00:28:17;;;;;;;;;;;;;;;;;;174104;28;860;-47
2021/11/23 00:28:22;;;;;;;;;;;;;;;;;;173788;28;1241;-50
2021/11/23 00:28:27;;;;;;;;;;;;;;;;;;173479;28;925;-49
2021/11/23 00:28:32;;;;;;;;;;;;;;;;;;173493;28;1136;-49
2021/11/23 00:28:37;;;;;;;;;;;;;;;;;;174028;28;785;-49
2021/11/23 00:28:43;;;;;;;;;;;;;;;;;;174196;28;897;-51
2021/11/23 00:28:48;;;;;;;;;;;;;;;;;;173395;28;1180;-50
2021/11/23 00:28:53;;;;;;;;;;;;;;;;;;173477;28;987;-48
2021/11/23 00:28:58;;;;;;;;;;;;;;;;;;173799;28;1076;-49
2021/11/23 00:29:03;;;;;;;;;;;;;;;;;;174205;28;868;-50
2021/11/23 00:29:09;;;;;;;;;;;;;;;;;;173845;28;1148;-49
2021/11/23 00:29:14;;;;;;;;;;;;;;;;;;173448;28;810;-49
2021/11/23 00:29:19;;;;;;;;;;;;;;;;;;173455;28;1144;-49
2021/11/23 00:29:24;;;;;;;;;;;;;;;;;;174159;28;821;-49
2021/11/23 00:29:30;;;;;;;;;;;;;;;;;;173985;28;1913;-49
2021/11/23 00:29:35;;;;;;;;;;;;;;;;;;173494;28;1265;-50
2021/11/23 00:29:40;;;;;;;;;;;;;;;;;;172920;28;1566;-49
2021/11/23 00:29:45;;;;;;;;;;;;;;;;;;172232;28;1426;-51
2021/11/23 00:29:51;;;;;;;;;;;;;;;;;;173897;28;881;-51
2021/11/23 00:29:56;;;;;;;;;;;;;;;;;;173642;28;1196;-48
2021/11/23 00:30:02;;;;;;;;;;;;;;;;;;174275;28;840;-49
2021/11/23 00:30:08;;;;;;;;;;;;;;;;;;173937;28;1168;-51
2021/11/23 00:30:13;;;;;;;;;;;;;;;;;;173577;28;809;-49
2021/11/23 00:30:18;;;;;;;;;;;;;;;;;;173409;28;1195;-50
2021/11/23 00:30:27;;;;;;;;;;;;;;;;;;174228;28;888;-52
2021/11/23 00:30:32;;;;;;;;;;;;;;;;;;173520;28;1852;-52
2021/11/23 00:30:38;;;;;;;;;;;;;;;;;;173755;28;854;-48
2021/11/23 00:30:45;;;;;;;;;;;;;;;;;;173672;28;1133;-49
2021/11/23 00:30:51;;;;;;;;;;;;;;;;;;174109;28;860;-48
2021/11/23 00:30:56;;;;;;;;;;;;;;;;;;174085;28;1175;-49
2021/11/23 00:31:01;;;;;;;;;;;;;;;;;;174160;28;960;-49
2021/11/23 00:31:06;;;;;;;;;;;;;;;;;;173861;28;1223;-51
2021/11/23 00:31:11;;;;;;;;;;;;;;;;;;173554;28;897;-48
2021/11/23 00:31:17;;;;;;;;;;;;;;;;;;173384;28;1141;-52
2021/11/23 00:31:22;;;;;;;;;;;;;;;;;;174181;28;1062;-51
2021/11/23 00:31:27;;;;;;;;;;;;;;;;;;174059;28;865;-49
2021/11/23 00:31:32;;;;;;;;;;;;;;;;;;173458;28;1235;-49
2021/11/23 00:31:37;;;;;;;;;;;;;;;;;;173385;28;1008;-49
2021/11/23 00:31:42;;;;;;;;;;;;;;;;;;173655;28;1180;-52
2021/11/23 00:31:48;;;;;;;;;;;;;;;;;;174170;28;1062;-49
2021/11/23 00:31:53;;;;;;;;;;;;;;;;;;174123;28;1108;-48
2021/11/23 00:31:58;;;;;;;;;;;;;;;;;;173990;28;868;-49
2021/11/23 00:32:03;;;;;;;;;;;;;;;;;;174114;28;987;-49
2021/11/23 00:32:09;;;;;;;;;;;;;;;;;;173398;28;1215;-49
2021/11/23 00:32:14;;;;;;;;;;;;;;;;;;173413;28;809;-49
2021/11/23 00:32:19;;;;;;;;;;;;;;;;;;173289;28;1120;-49
2021/11/23 00:32:24;;;;;;;;;;;;;;;;;;173373;28;949;-49
2021/11/23 00:32:29;;;;;;;;;;;;;;;;;;173662;28;1149;-49
2021/11/23 00:32:35;;;;;;;;;;;;;;;;;;174017;28;948;-48
2021/11/23 00:32:40;;;;;;;;;;;;;;;;;;173729;28;1191;-52
2021/11/23 00:32:45;;;;;;;;;;;;;;;;;;173754;28;1148;-49
2021/11/23 00:32:51;;;;;;;;;;;;;;;;;;174118;28;798;-48
2021/11/23 00:32:56;;;;;;;;;;;;;;;;;;173174;28;897;-48
2021/11/23 00:33:02;;;;;;;;;;;;;;;;;;173506;28;1008;-50
2021/11/23 00:33:07;;;;;;;;;;;;;;;;;;174049;28;1311;-49
2021/11/23 00:33:12;;;;;;;;;;;;;;;;;;174234;28;904;-50
2021/11/23 00:33:17;;;;;;;;;;;;;;;;;;173664;28;1240;-51
2021/11/23 00:33:23;;;;;;;;;;;;;;;;;;173580;28;837;-48
2021/11/23 00:33:31;;;;;;;;;;;;;;;;;;173606;28;1129;-50
2021/11/23 00:33:42;;;;;;;;;;;;;;;;;;174065;28;1037;-49
2021/11/23 00:33:47;;;;;;;;;;;;;;;;;;173064;28;1487;-48
2021/11/23 00:33:52;;;;;;;;;;;;;;;;;;173947;28;951;-49
2021/11/23 00:33:57;;;;;;;;;;;;;;;;;;174014;28;877;-49
2021/11/23 00:34:03;;;;;;;;;;;;;;;;;;174182;28;1172;-49
2021/11/23 00:34:08;;;;;;;;;;;;;;;;;;173647;28;1566;-50
2021/11/23 00:34:13;;;;;;;;;;;;;;;;;;173521;28;1051;-51
2021/11/23 00:34:18;;;;;;;;;;;;;;;;;;174039;28;1279;-49
2021/11/23 00:34:24;;;;;;;;;;;;;;;;;;174004;28;999;-49
2021/11/23 00:34:29;;;;;;;;;;;;;;;;;;173491;28;1171;-50
2021/11/23 00:34:34;;;;;;;;;;;;;;;;;;173394;28;806;-48
2021/11/23 00:34:39;;;;;;;;;;;;;;;;;;173686;28;1117;-49
2021/11/23 00:34:45;;;;;;;;;;;;;;;;;;174105;28;1012;-51
2021/11/23 00:34:50;;;;;;;;;;;;;;;;;;172951;28;1985;-55
2021/11/23 00:34:55;;;;;;;;;;;;;;;;;;173978;28;1810;-47
2021/11/23 00:35:00;;;;;;;;;;;;;;;;;;174050;28;928;-52
2021/11/23 00:35:05;;;;;;;;;;;;;;;;;;173374;28;908;-51
2021/11/23 00:35:11;;;;;;;;;;;;;;;;;;173504;28;925;-48
2021/11/23 00:35:16;;;;;;;;;;;;;;;;;;173911;28;1169;-51
2021/11/23 00:35:21;;;;;;;;;;;;;;;;;;174263;28;834;-49
2021/11/23 00:35:27;;;;;;;;;;;;;;;;;;173017;28;1441;-50
2021/11/23 00:35:32;;;;;;;;;;;;;;;;;;173509;28;955;-49
2021/11/23 00:35:38;;;;;;;;;;;;;;;;;;173549;28;1181;-49
2021/11/23 00:35:43;;;;;;;;;;;;;;;;;;174122;28;1084;-49
2021/11/23 00:35:49;;;;;;;;;;;;;;;;;;174236;28;1231;-49
2021/11/23 00:35:54;;;;;;;;;;;;;;;;;;174178;28;794;-51
2021/11/23 00:35:59;;;;;;;;;;;;;;;;;;174074;28;706;-49
2021/11/23 00:36:04;;;;;;;;;;;;;;;;;;173492;28;975;-48
2021/11/23 00:36:10;;;;;;;;;;;;;;;;;;173512;28;790;-50
2021/11/23 00:36:15;;;;;;;;;;;;;;;;;;173972;28;1279;-48
2021/11/23 00:36:20;;;;;;;;;;;;;;;;;;174052;28;1114;-49
2021/11/23 00:36:25;;;;;;;;;;;;;;;;;;173756;28;1058;-47
2021/11/23 00:36:31;;;;;;;;;;;;;;;;;;173333;28;865;-51
2021/11/23 00:36:36;;;;;;;;;;;;;;;;;;173422;28;1195;-50
2021/11/23 00:36:41;;;;;;;;;;;;;;;;;;174188;28;881;-49
2021/11/23 00:36:47;;;;;;;;;;;;;;;;;;174061;28;1116;-48
2021/11/23 00:36:52;;;;;;;;;;;;;;;;;;174114;28;960;-52
2021/11/23 00:36:59;;;;;;;;;;;;;;;;;;173996;28;786;-51
2021/11/23 00:37:04;;;;;;;;;;;;;;;;;;174156;28;901;-51
2021/11/23 00:37:09;;;;;;;;;;;;;;;;;;174098;28;1051;-49
2021/11/23 00:37:14;;;;;;;;;;;;;;;;;;173431;28;1120;-49
2021/11/23 00:37:19;;;;;;;;;;;;;;;;;;173407;28;885;-49
2021/11/23 00:37:25;;;;;;;;;;;;;;;;;;173650;28;1133;-50
2021/11/23 00:37:30;;;;;;;;;;;;;;;;;;173990;28;866;-51
2021/11/23 00:37:35;;;;;;;;;;;;;;;;;;173818;28;1211;-54
2021/11/23 00:37:43;;;;;;;;;;;;;;;;;;173472;28;797;-48
2021/11/23 00:37:49;;;;;;;;;;;;;;;;;;174063;28;1128;-50
2021/11/23 00:37:55;;;;;;;;;;;;;;;;;;174128;28;814;-48
2021/11/23 00:38:01;;;;;;;;;;;;;;;;;;173466;28;1133;-50
2021/11/23 00:38:06;;;;;;;;;;;;;;;;;;173475;28;907;-51
2021/11/23 00:38:11;;;;;;;;;;;;;;;;;;173627;28;1136;-49
2021/11/23 00:38:16;;;;;;;;;;;;;;;;;;173953;28;877;-49